createdAt,value
2022-11-29T00:01:34.443Z,9.02
2022-11-29T00:04:02.538Z,8.82
2022-11-29T00:06:33.386Z,10.90
2022-11-29T00:09:04.396Z,10.48
2022-11-29T00:11:54.316Z,9.15
2022-11-29T00:14:22.778Z,8.45
2022-11-29T00:17:02.604Z,7.78
2022-11-29T00:19:35.812Z,9.07
2022-11-29T00:22:04.216Z,7.90
2022-11-29T00:24:32.631Z,8.27
2022-11-29T00:27:00.848Z,8.63
2022-11-29T00:29:30.048Z,8.80
2022-11-29T00:31:57.654Z,8.70
2022-11-29T00:34:25.268Z,7.88
2022-11-29T00:36:52.868Z,8.50
2022-11-29T00:39:20.474Z,8.93
2022-11-29T00:41:48.091Z,8.77
2022-11-29T00:44:20.085Z,10.30
2022-11-29T00:46:48.725Z,9.50
2022-11-29T00:49:16.534Z,8.93
2022-11-29T00:51:44.221Z,9.32
2022-11-29T00:54:12.141Z,8.77
2022-11-29T00:56:39.728Z,9.73
2022-11-29T00:59:07.236Z,8.10
2022-11-29T01:01:34.922Z,8.15
2022-11-29T01:04:02.964Z,8.05
2022-11-29T01:06:30.492Z,8.07
2022-11-29T01:08:58.090Z,7.90
2022-11-29T01:11:27.830Z,7.13
2022-11-29T01:13:58.488Z,7.25
2022-11-29T01:16:27.664Z,7.03
2022-11-29T01:18:55.278Z,7.05
2022-11-29T01:21:24.388Z,7.30
2022-11-29T01:23:53.166Z,7.30
2022-11-29T01:26:26.144Z,7.57
2022-11-29T01:28:55.212Z,6.90
2022-11-29T01:31:28.714Z,6.90
2022-11-29T01:33:58.450Z,7.50
2022-11-29T01:36:27.285Z,7.13
2022-11-29T01:38:54.880Z,7.30
2022-11-29T01:41:27.774Z,6.63
2022-11-29T01:43:55.308Z,7.22
2022-11-29T01:46:23.405Z,6.87
2022-11-29T01:48:55.030Z,7.13
2022-11-29T01:51:22.836Z,7.63
2022-11-29T01:53:50.413Z,7.45
2022-11-29T01:56:18.180Z,7.88
2022-11-29T01:58:45.962Z,8.30
2022-11-29T02:01:14.556Z,7.70
2022-11-29T02:03:42.567Z,7.50
2022-11-29T02:06:10.298Z,7.75
2022-11-29T02:08:41.092Z,7.55
2022-11-29T02:11:17.975Z,8.03
2022-11-29T02:14:04.996Z,6.35
2022-11-29T02:16:56.757Z,6.13
2022-11-29T02:19:42.462Z,6.35
2022-11-29T02:22:23.393Z,6.82
2022-11-29T02:25:10.092Z,6.20
2022-11-29T02:28:00.882Z,6.15
2022-11-29T02:30:49.470Z,5.50
2022-11-29T02:33:20.074Z,5.20
2022-11-29T02:36:18.384Z,5.75
2022-11-29T02:39:08.823Z,6.10
2022-11-29T02:41:39.227Z,5.93
2022-11-29T02:44:15.849Z,6.47
2022-11-29T02:47:05.558Z,5.70
2022-11-29T02:49:42.152Z,6.05
2022-11-29T02:52:26.387Z,7.37
2022-11-29T02:55:03.983Z,7.70
2022-11-29T02:57:43.386Z,7.57
2022-11-29T03:00:18.628Z,8.40
2022-11-29T03:02:52.308Z,7.47
2022-11-29T03:05:26.302Z,8.40
2022-11-29T03:08:26.857Z,8.50
2022-11-29T03:11:31.700Z,8.07
2022-11-29T03:14:01.797Z,7.45
2022-11-29T03:16:42.863Z,7.70
2022-11-29T03:19:31.132Z,8.20
2022-11-29T03:22:26.715Z,7.80
2022-11-29T03:25:17.873Z,7.03
2022-11-29T03:27:59.153Z,7.03
2022-11-29T03:30:27.015Z,6.88
2022-11-29T03:33:03.405Z,7.37
2022-11-29T03:35:45.803Z,6.95
2022-11-29T03:38:24.191Z,6.55
2022-11-29T03:41:01.461Z,6.35
2022-11-29T03:43:46.088Z,6.10
2022-11-29T03:46:29.588Z,6.03
2022-11-29T03:49:03.876Z,6.30
2022-11-29T03:51:49.465Z,5.60
2022-11-29T03:54:24.462Z,5.30
2022-11-29T03:56:52.410Z,5.32
2022-11-29T03:59:51.744Z,5.20
2022-11-29T04:02:56.932Z,5.93
2022-11-29T04:06:06.192Z,6.65
2022-11-29T04:08:45.682Z,5.78
2022-11-29T04:11:22.145Z,5.93
2022-11-29T04:14:30.791Z,6.87
2022-11-29T04:17:37.332Z,6.05
2022-11-29T04:20:42.056Z,6.55
2022-11-29T04:23:27.059Z,5.95
2022-11-29T04:26:01.200Z,5.88
2022-11-29T04:29:02.494Z,5.60
2022-11-29T04:31:33.177Z,5.75
2022-11-29T04:34:16.478Z,5.38
2022-11-29T04:37:05.803Z,5.20
2022-11-29T04:40:02.996Z,5.20
2022-11-29T04:42:37.116Z,5.53
2022-11-29T04:45:24.928Z,5.10
2022-11-29T04:48:26.531Z,5.20
2022-11-29T04:51:15.634Z,4.53
2022-11-29T04:54:20.322Z,4.80
2022-11-29T04:56:54.634Z,4.70
2022-11-29T04:59:30.828Z,4.47
2022-11-29T05:02:16.489Z,4.68
2022-11-29T05:04:56.735Z,4.25
2022-11-29T05:07:43.505Z,4.30
2022-11-29T05:10:20.305Z,5.17
2022-11-29T05:13:08.149Z,4.75
2022-11-29T05:16:20.815Z,5.00
2022-11-29T05:19:16.968Z,4.78
2022-11-29T05:21:53.620Z,4.45
2022-11-29T05:24:53.485Z,4.47
2022-11-29T05:27:47.327Z,4.25
2022-11-29T05:30:18.270Z,4.63
2022-11-29T05:33:08.737Z,5.10
2022-11-29T05:35:48.158Z,5.35
2022-11-29T05:38:24.422Z,4.80
2022-11-29T05:41:37.667Z,4.95
2022-11-29T05:44:14.803Z,4.55
2022-11-29T05:46:45.476Z,4.70
2022-11-29T05:49:34.422Z,4.55
2022-11-29T05:52:43.448Z,4.60
2022-11-29T05:55:13.996Z,4.18
2022-11-29T05:58:03.477Z,4.60
2022-11-29T06:00:47.656Z,4.60
2022-11-29T06:03:29.616Z,4.88
2022-11-29T06:06:03.748Z,5.03
2022-11-29T06:08:47.839Z,5.15
2022-11-29T06:11:27.953Z,6.68
2022-11-29T06:14:07.491Z,6.72
2022-11-29T06:16:51.265Z,7.70
2022-11-29T06:19:32.653Z,9.90
2022-11-29T06:22:11.617Z,9.65
2022-11-29T06:24:56.914Z,8.80
2022-11-29T06:27:50.205Z,8.73
2022-11-29T06:30:26.312Z,7.10
2022-11-29T06:33:03.263Z,6.70
2022-11-29T06:35:39.959Z,7.78
2022-11-29T06:38:27.211Z,5.55
2022-11-29T06:41:01.523Z,6.13
2022-11-29T06:43:30.443Z,6.40
2022-11-29T06:46:23.937Z,6.57
2022-11-29T06:49:12.380Z,9.23
2022-11-29T06:51:55.939Z,8.18
2022-11-29T06:54:38.498Z,6.85
2022-11-29T06:57:17.247Z,8.02
2022-11-29T06:59:44.775Z,7.53
2022-11-29T07:02:27.583Z,7.22
2022-11-29T07:05:02.076Z,7.00
2022-11-29T07:07:30.263Z,6.45
2022-11-29T07:10:00.569Z,6.30
2022-11-29T07:12:28.438Z,6.03
2022-11-29T07:14:56.306Z,6.45
2022-11-29T07:17:54.277Z,6.00
2022-11-29T07:20:49.395Z,5.22
2022-11-29T07:23:19.762Z,6.10
2022-11-29T07:26:29.021Z,5.67
2022-11-29T07:29:08.542Z,5.82
2022-11-29T07:31:46.050Z,6.03
2022-11-29T07:34:25.821Z,5.70
2022-11-29T07:37:28.370Z,5.78
2022-11-29T07:40:16.261Z,6.10
2022-11-29T07:43:13.844Z,5.75
2022-11-29T07:45:41.776Z,6.18
2022-11-29T07:48:11.198Z,5.68
2022-11-29T07:50:40.502Z,5.93
2022-11-29T07:53:15.619Z,5.63
2022-11-29T07:55:43.366Z,5.88
2022-11-29T07:58:15.703Z,5.30
2022-11-29T08:00:44.415Z,5.32
2022-11-29T08:03:12.523Z,5.05
2022-11-29T08:05:40.634Z,4.63
2022-11-29T08:08:08.334Z,4.57
2022-11-29T08:10:35.986Z,4.22
2022-11-29T08:13:03.922Z,5.05
2022-11-29T08:15:31.630Z,5.20
2022-11-29T08:17:59.137Z,4.43
2022-11-29T08:20:26.864Z,4.45
2022-11-29T08:22:56.268Z,5.07
2022-11-29T08:25:24.145Z,5.00
2022-11-29T08:27:51.898Z,5.70
2022-11-29T08:30:22.778Z,4.97
2022-11-29T08:32:51.722Z,5.38
2022-11-29T08:35:21.672Z,5.15
2022-11-29T08:37:50.257Z,4.90
2022-11-29T08:40:18.068Z,4.60
2022-11-29T08:42:45.652Z,4.80
2022-11-29T08:45:13.431Z,4.60
2022-11-29T08:47:42.470Z,6.55
2022-11-29T08:50:15.619Z,4.90
2022-11-29T08:53:07.267Z,5.03
2022-11-29T08:55:43.121Z,4.47
2022-11-29T08:58:13.784Z,4.60
2022-11-29T09:00:44.318Z,4.43
2022-11-29T09:03:30.563Z,4.20
2022-11-29T09:05:58.141Z,4.50
2022-11-29T09:08:25.741Z,4.67
2022-11-29T09:10:53.588Z,4.55
2022-11-29T09:13:21.252Z,4.90
2022-11-29T09:15:49.198Z,5.43
2022-11-29T09:18:16.782Z,5.43
2022-11-29T09:20:45.213Z,5.20
2022-11-29T09:23:13.470Z,5.13
2022-11-29T09:25:41.145Z,5.72
2022-11-29T09:28:08.869Z,5.82
2022-11-29T09:30:38.225Z,4.30
2022-11-29T09:33:05.926Z,4.60
2022-11-29T09:35:35.261Z,4.40
2022-11-29T09:38:02.868Z,4.40
2022-11-29T09:40:48.632Z,3.92
2022-11-29T09:43:53.608Z,3.47
2022-11-29T09:46:57.188Z,3.30
2022-11-29T09:50:03.992Z,3.40
2022-11-29T09:53:09.180Z,3.60
2022-11-29T09:56:12.369Z,3.22
2022-11-29T09:58:58.900Z,3.63
2022-11-29T10:01:31.538Z,3.80
2022-11-29T10:04:05.899Z,3.38
2022-11-29T10:06:45.894Z,3.83
2022-11-29T10:09:29.527Z,3.97
2022-11-29T10:12:35.142Z,4.05
2022-11-29T10:15:26.184Z,3.93
2022-11-29T10:18:01.231Z,3.70
2022-11-29T10:20:42.440Z,3.90
2022-11-29T10:23:21.568Z,3.45
2022-11-29T10:25:52.362Z,4.40
2022-11-29T10:28:26.600Z,4.47
2022-11-29T10:30:56.894Z,4.40
2022-11-29T10:33:31.054Z,4.20
2022-11-29T10:36:03.637Z,4.20
2022-11-29T10:38:31.958Z,4.57
2022-11-29T10:41:07.285Z,5.13
2022-11-29T10:43:37.438Z,4.57
2022-11-29T10:46:06.610Z,4.88
2022-11-29T10:48:34.493Z,4.35
2022-11-29T10:51:02.475Z,3.42
2022-11-29T10:53:36.793Z,3.50
2022-11-29T10:56:16.674Z,3.55
2022-11-29T10:58:57.068Z,4.15
2022-11-29T11:01:26.502Z,3.60
2022-11-29T11:03:56.024Z,3.50
2022-11-29T11:06:23.646Z,3.40
2022-11-29T11:09:19.896Z,3.33
2022-11-29T11:11:53.592Z,3.28
2022-11-29T11:14:29.219Z,3.33
2022-11-29T11:17:13.919Z,2.88
2022-11-29T11:19:41.639Z,3.10
2022-11-29T11:22:21.977Z,3.30
2022-11-29T11:25:06.834Z,3.28
2022-11-29T11:27:40.122Z,3.70
2022-11-29T11:30:21.254Z,3.83
2022-11-29T11:33:21.778Z,4.00
2022-11-29T11:36:02.285Z,3.45
2022-11-29T11:38:31.096Z,3.58
2022-11-29T11:41:51.570Z,3.83
2022-11-29T11:44:53.664Z,3.60
2022-11-29T11:47:24.521Z,3.90
2022-11-29T11:50:08.291Z,4.43
2022-11-29T11:52:50.401Z,4.18
2022-11-29T11:55:21.210Z,4.60
2022-11-29T11:58:12.797Z,4.63
2022-11-29T12:03:55.481Z,4.22
2022-11-29T12:06:34.932Z,4.43
2022-11-29T12:09:25.027Z,4.60
2022-11-29T12:12:15.236Z,4.40
2022-11-29T12:14:46.574Z,4.13
2022-11-29T12:17:39.193Z,4.20
2022-11-29T12:20:26.833Z,4.10
2022-11-29T12:23:09.574Z,4.60
2022-11-29T12:26:05.734Z,4.35
2022-11-29T12:28:35.875Z,4.33
2022-11-29T12:31:37.308Z,4.38
2022-11-29T12:34:31.534Z,4.47
2022-11-29T12:37:08.140Z,4.13
2022-11-29T12:40:00.472Z,4.40
2022-11-29T12:42:52.418Z,4.47
2022-11-29T12:45:28.849Z,4.50
2022-11-29T12:48:17.505Z,4.60
2022-11-29T12:51:15.705Z,4.35
2022-11-29T12:54:20.970Z,4.22
2022-11-29T12:57:06.862Z,4.90
2022-11-29T12:59:45.364Z,4.32
2022-11-29T13:02:27.113Z,4.82
2022-11-29T13:05:03.462Z,4.47
2022-11-29T13:07:44.101Z,3.83
2022-11-29T13:10:18.476Z,4.13
2022-11-29T13:12:53.024Z,4.03
2022-11-29T13:15:32.804Z,4.32
2022-11-29T13:18:11.186Z,4.10
2022-11-29T13:20:44.878Z,3.40
2022-11-29T13:23:17.506Z,4.20
2022-11-29T13:25:51.098Z,3.45
2022-11-29T13:28:28.426Z,4.47
2022-11-29T13:31:29.017Z,4.10
2022-11-29T13:34:17.692Z,3.90
2022-11-29T13:36:54.088Z,4.13
2022-11-29T13:39:33.746Z,4.20
2022-11-29T13:42:19.017Z,4.85
2022-11-29T13:45:25.910Z,4.97
2022-11-29T13:47:56.365Z,4.75
2022-11-29T13:50:44.282Z,5.07
2022-11-29T13:53:23.965Z,5.05
2022-11-29T13:56:01.823Z,4.25
2022-11-29T13:58:29.643Z,4.80
2022-11-29T14:01:13.715Z,4.72
2022-11-29T14:03:49.046Z,4.87
2022-11-29T14:06:22.007Z,4.80
2022-11-29T14:09:17.921Z,4.65
2022-11-29T14:11:43.248Z,4.53
2022-11-29T14:14:48.412Z,4.70
2022-11-29T14:17:48.287Z,4.53
2022-11-29T14:20:25.253Z,4.70
2022-11-29T14:23:05.059Z,5.07
2022-11-29T14:28:21.787Z,5.00
2022-11-29T14:30:57.433Z,4.83
2022-11-29T14:33:35.721Z,5.47
2022-11-29T14:36:17.612Z,5.40
2022-11-29T14:38:48.090Z,5.18
2022-11-29T14:41:21.495Z,5.05
2022-11-29T14:43:49.359Z,5.00
2022-11-29T14:46:17.053Z,5.00
2022-11-29T14:48:48.288Z,6.07
2022-11-29T14:51:19.188Z,6.97
2022-11-29T14:53:51.211Z,7.85
2022-11-29T14:56:31.817Z,6.73
2022-11-29T14:59:36.950Z,5.78
2022-11-29T15:02:14.607Z,5.90
2022-11-29T15:04:42.710Z,5.70
2022-11-29T15:07:18.767Z,5.70
2022-11-29T15:09:50.388Z,5.63
2022-11-29T15:12:21.878Z,6.03
2022-11-29T15:15:07.813Z,5.93
2022-11-29T15:18:26.782Z,5.22
2022-11-29T15:21:18.952Z,5.82
2022-11-29T15:23:46.663Z,5.60
2022-11-29T15:26:18.095Z,6.40
2022-11-29T15:28:45.988Z,5.72
2022-11-29T15:31:18.821Z,6.07
2022-11-29T15:33:49.032Z,6.28
2022-11-29T15:36:21.986Z,6.40
2022-11-29T15:38:52.429Z,6.25
2022-11-29T15:41:31.976Z,6.20
2022-11-29T15:44:02.625Z,6.25
2022-11-29T15:46:32.963Z,6.05
2022-11-29T15:49:26.735Z,5.90
2022-11-29T15:51:58.243Z,5.85
2022-11-29T15:54:38.435Z,5.85
2022-11-29T15:57:29.474Z,5.82
2022-11-29T16:00:04.184Z,5.40
2022-11-29T16:02:35.672Z,5.67
2022-11-29T16:05:16.189Z,5.22
2022-11-29T16:07:45.950Z,5.28
2022-11-29T16:10:21.148Z,4.25
2022-11-29T16:13:26.432Z,4.75
2022-11-29T16:16:11.044Z,4.53
2022-11-29T16:18:41.112Z,4.38
2022-11-29T16:21:28.052Z,4.30
2022-11-29T16:23:56.761Z,4.93
2022-11-29T16:26:33.857Z,5.00
2022-11-29T16:29:01.972Z,4.37
2022-11-29T16:31:35.990Z,4.88
2022-11-29T16:34:26.571Z,4.60
2022-11-29T16:37:09.105Z,4.60
2022-11-29T16:39:39.046Z,4.72
2022-11-29T16:42:26.167Z,4.80
2022-11-29T16:45:00.225Z,5.20
2022-11-29T16:47:30.885Z,4.90
2022-11-29T16:50:31.509Z,4.68
2022-11-29T16:53:53.490Z,4.93
2022-11-29T16:56:25.145Z,4.97
2022-11-29T16:59:20.891Z,5.20
2022-11-29T17:01:52.621Z,5.15
2022-11-29T17:04:23.801Z,5.10
2022-11-29T17:06:54.255Z,5.18
2022-11-29T17:09:30.924Z,5.63
2022-11-29T17:12:01.057Z,5.75
2022-11-29T17:14:29.429Z,5.50
2022-11-29T17:17:01.180Z,5.70
2022-11-29T17:19:30.109Z,6.20
2022-11-29T17:21:58.337Z,5.70
2022-11-29T17:24:26.235Z,5.43
2022-11-29T17:26:54.044Z,6.10
2022-11-29T17:29:21.735Z,5.60
2022-11-29T17:31:50.707Z,5.57
2022-11-29T17:34:18.956Z,6.30
2022-11-29T17:36:47.136Z,6.05
2022-11-29T17:39:15.859Z,5.97
2022-11-29T17:41:43.400Z,5.95
2022-11-29T17:44:10.997Z,6.55
2022-11-29T17:46:39.190Z,5.83
2022-11-29T17:49:09.405Z,6.47
2022-11-29T17:51:51.639Z,6.50
2022-11-29T17:54:19.637Z,7.38
2022-11-29T17:56:47.219Z,7.40
2022-11-29T17:59:14.747Z,6.23
2022-11-29T18:01:42.343Z,6.10
2022-11-29T18:04:10.441Z,5.65
2022-11-29T18:06:40.230Z,5.60
2022-11-29T18:09:10.097Z,5.78
2022-11-29T18:11:49.847Z,5.33
2022-11-29T18:14:22.819Z,5.97
2022-11-29T18:16:51.409Z,5.75
2022-11-29T18:19:21.198Z,5.63
2022-11-29T18:21:49.772Z,5.45
2022-11-29T18:24:17.877Z,5.43
2022-11-29T18:26:45.648Z,4.93
2022-11-29T18:29:13.470Z,5.50
2022-11-29T18:31:43.277Z,5.50
2022-11-29T18:34:13.288Z,4.88
2022-11-29T18:36:46.800Z,4.77
2022-11-29T18:39:19.709Z,4.90
2022-11-29T18:41:49.388Z,4.75
2022-11-29T18:44:19.191Z,5.20
2022-11-29T18:46:47.131Z,5.10
2022-11-29T18:49:17.036Z,4.50
2022-11-29T18:51:46.033Z,5.90
2022-11-29T18:54:15.546Z,4.75
2022-11-29T18:56:44.218Z,5.13
2022-11-29T18:59:16.919Z,4.93
2022-11-29T19:01:47.638Z,5.57
2022-11-29T19:04:21.154Z,5.90
2022-11-29T19:06:49.543Z,5.78
2022-11-29T19:09:21.369Z,5.50
2022-11-29T19:11:50.157Z,6.55
2022-11-29T19:14:18.395Z,4.97
2022-11-29T19:16:48.425Z,5.28
2022-11-29T19:19:18.632Z,5.32
2022-11-29T19:21:46.544Z,5.13
2022-11-29T19:24:15.990Z,5.35
2022-11-29T19:26:46.162Z,5.63
2022-11-29T19:29:14.548Z,5.63
2022-11-29T19:31:42.933Z,5.63
2022-11-29T19:34:10.896Z,5.03
2022-11-29T19:36:44.122Z,5.65
2022-11-29T19:39:14.668Z,5.73
2022-11-29T19:41:47.679Z,6.05
2022-11-29T19:44:15.385Z,5.97
2022-11-29T19:46:46.093Z,5.68
2022-11-29T19:49:13.688Z,5.38
2022-11-29T19:51:41.503Z,5.50
2022-11-29T19:54:10.665Z,5.20
2022-11-29T19:56:39.012Z,5.93
2022-11-29T19:59:08.329Z,6.03
2022-11-29T20:01:40.723Z,5.97
2022-11-29T20:04:10.085Z,5.77
2022-11-29T20:06:38.101Z,6.82
2022-11-29T20:09:06.550Z,6.72
2022-11-29T20:11:34.653Z,7.22
2022-11-29T20:14:04.309Z,6.60
2022-11-29T20:16:32.658Z,6.70
2022-11-29T20:19:00.320Z,6.63
2022-11-29T20:21:31.269Z,7.13
2022-11-29T20:24:01.619Z,7.03
2022-11-29T20:26:31.582Z,6.97
2022-11-29T20:29:00.091Z,6.60
2022-11-29T20:31:28.446Z,6.63
2022-11-29T20:33:59.557Z,7.00
2022-11-29T20:36:33.193Z,7.20
2022-11-29T20:39:13.328Z,7.50
2022-11-29T20:42:06.773Z,6.70
2022-11-29T20:44:39.050Z,6.95
2022-11-29T20:47:21.396Z,7.03
2022-11-29T20:49:49.438Z,7.35
2022-11-29T20:52:34.898Z,7.50
2022-11-29T20:55:02.456Z,7.63
2022-11-29T20:57:30.012Z,6.90
2022-11-29T20:59:57.639Z,7.07
2022-11-29T21:02:25.329Z,7.43
2022-11-29T21:04:52.923Z,7.13
2022-11-29T21:07:20.625Z,6.83
2022-11-29T21:09:48.180Z,7.55
2022-11-29T21:12:16.152Z,6.97
2022-11-29T21:14:44.719Z,6.95
2022-11-29T21:17:12.940Z,6.72
2022-11-29T21:19:41.188Z,6.63
2022-11-29T21:22:21.902Z,6.43
2022-11-29T21:25:30.971Z,6.53
2022-11-29T21:28:00.435Z,6.53
2022-11-29T21:30:28.183Z,6.93
2022-11-29T21:32:56.041Z,6.17
2022-11-29T21:35:23.742Z,6.03
2022-11-29T21:37:53.671Z,5.95
2022-11-29T21:40:21.562Z,5.43
2022-11-29T21:42:49.120Z,6.05
2022-11-29T21:45:16.842Z,6.40
2022-11-29T21:47:44.908Z,6.32
2022-11-29T21:50:13.744Z,5.93
2022-11-29T21:52:41.262Z,6.50
2022-11-29T21:55:09.225Z,6.18
2022-11-29T21:57:37.746Z,7.00
2022-11-29T22:00:06.350Z,6.97
2022-11-29T22:02:34.011Z,7.40
2022-11-29T22:05:01.791Z,7.30
2022-11-29T22:07:29.347Z,6.70
2022-11-29T22:09:56.953Z,7.10
2022-11-29T22:12:34.254Z,7.20
2022-11-29T22:15:02.371Z,6.68
2022-11-29T22:17:30.367Z,7.43
2022-11-29T22:19:57.951Z,6.57
2022-11-29T22:22:28.127Z,6.63
2022-11-29T22:24:56.043Z,6.65
2022-11-29T22:27:23.781Z,6.65
2022-11-29T22:29:51.338Z,6.60
2022-11-29T22:32:18.895Z,6.47
2022-11-29T22:34:46.659Z,6.37
2022-11-29T22:37:14.403Z,6.38
2022-11-29T22:39:41.952Z,6.32
2022-11-29T22:42:09.499Z,6.70
2022-11-29T22:44:37.069Z,7.38
2022-11-29T22:47:04.709Z,7.67
2022-11-29T22:49:33.372Z,10.32
2022-11-29T22:52:00.935Z,12.32
2022-11-29T22:54:28.609Z,15.80
2022-11-29T22:56:56.132Z,17.25
2022-11-29T22:59:23.710Z,17.07
2022-11-29T23:01:51.345Z,14.68
2022-11-29T23:04:19.065Z,13.18
2022-11-29T23:06:47.049Z,11.32
2022-11-29T23:09:21.305Z,9.70
2022-11-29T23:11:54.154Z,8.30
2022-11-29T23:14:22.841Z,8.25
2022-11-29T23:16:50.778Z,7.07
2022-11-29T23:19:18.878Z,7.30
2022-11-29T23:21:46.942Z,6.28
2022-11-29T23:24:15.455Z,6.63
2022-11-29T23:26:45.923Z,5.97
2022-11-29T23:29:16.093Z,6.00
2022-11-29T23:31:44.101Z,6.03
2022-11-29T23:34:11.823Z,5.72
2022-11-29T23:36:39.511Z,5.73
2022-11-29T23:39:07.322Z,5.90
2022-11-29T23:41:36.624Z,6.05
2022-11-29T23:44:08.796Z,6.07
2022-11-29T23:46:36.757Z,5.80
2022-11-29T23:49:04.461Z,6.17
2022-11-29T23:51:32.046Z,5.90
2022-11-29T23:53:59.685Z,6.75
2022-11-29T23:56:27.222Z,7.80
2022-11-29T23:58:54.885Z,6.95
